sensor_id;sensor_type;location;lat;lon;timestamp;P1;durP1;ratioP1;P2;durP2;ratioP2
63943;SDS011;50121;51.218;7.664;2023-05-16T00:02:19;18.80;;;16.85;;
63943;SDS011;50121;51.218;7.664;2023-05-16T00:04:48;18.52;;;16.52;;
63943;SDS011;50121;51.218;7.664;2023-05-16T00:07:16;19.35;;;17.33;;
63943;SDS011;50121;51.218;7.664;2023-05-16T00:09:43;19.50;;;16.50;;
63943;SDS011;50121;51.218;7.664;2023-05-16T00:12:11;18.17;;;15.57;;
63943;SDS011;50121;51.218;7.664;2023-05-16T00:14:39;16.70;;;14.30;;
63943;SDS011;50121;51.218;7.664;2023-05-16T00:17:07;17.45;;;15.40;;
63943;SDS011;50121;51.218;7.664;2023-05-16T00:19:37;17.77;;;14.45;;
63943;SDS011;50121;51.218;7.664;2023-05-16T00:22:05;14.32;;;12.88;;
63943;SDS011;50121;51.218;7.664;2023-05-16T00:24:33;14.75;;;13.23;;
63943;SDS011;50121;51.218;7.664;2023-05-16T00:27:00;16.83;;;14.52;;
63943;SDS011;50121;51.218;7.664;2023-05-16T00:29:29;15.90;;;14.10;;
63943;SDS011;50121;51.218;7.664;2023-05-16T00:31:57;15.90;;;14.20;;
63943;SDS011;50121;51.218;7.664;2023-05-16T00:34:25;16.70;;;14.30;;
63943;SDS011;50121;51.218;7.664;2023-05-16T00:36:52;15.85;;;13.63;;
63943;SDS011;50121;51.218;7.664;2023-05-16T00:39:20;15.00;;;12.18;;
63943;SDS011;50121;51.218;7.664;2023-05-16T00:41:48;10.77;;;9.77;;
63943;SDS011;50121;51.218;7.664;2023-05-16T00:44:15;9.60;;;8.80;;
63943;SDS011;50121;51.218;7.664;2023-05-16T00:46:43;9.02;;;8.32;;
63943;SDS011;50121;51.218;7.664;2023-05-16T00:49:11;9.35;;;8.63;;
63943;SDS011;50121;51.218;7.664;2023-05-16T00:51:38;9.57;;;8.68;;
63943;SDS011;50121;51.218;7.664;2023-05-16T00:54:06;8.55;;;7.85;;
63943;SDS011;50121;51.218;7.664;2023-05-16T00:56:34;8.20;;;7.50;;
63943;SDS011;50121;51.218;7.664;2023-05-16T00:59:02;8.38;;;7.57;;
63943;SDS011;50121;51.218;7.664;2023-05-16T01:01:31;8.30;;;7.60;;
63943;SDS011;50121;51.218;7.664;2023-05-16T01:03:59;8.25;;;7.55;;
63943;SDS011;50121;51.218;7.664;2023-05-16T01:06:26;8.77;;;7.97;;
63943;SDS011;50121;51.218;7.664;2023-05-16T01:08:54;8.68;;;7.97;;
63943;SDS011;50121;51.218;7.664;2023-05-16T01:14:28;9.27;;;8.48;;
63943;SDS011;50121;51.218;7.664;2023-05-16T01:17:09;9.35;;;8.55;;
63943;SDS011;50121;51.218;7.664;2023-05-16T01:27:59;9.65;;;8.75;;
63943;SDS011;50121;51.218;7.664;2023-05-16T01:30:31;9.40;;;8.60;;
63943;SDS011;50121;51.218;7.664;2023-05-16T01:33:00;9.27;;;8.48;;
63943;SDS011;50121;51.218;7.664;2023-05-16T01:35:28;9.35;;;8.55;;
63943;SDS011;50121;51.218;7.664;2023-05-16T01:38:10;9.00;;;8.27;;
63943;SDS011;50121;51.218;7.664;2023-05-16T01:40:52;9.43;;;8.63;;
63943;SDS011;50121;51.218;7.664;2023-05-16T01:43:32;8.98;;;8.27;;
63943;SDS011;50121;51.218;7.664;2023-05-16T01:46:07;8.70;;;8.00;;
63943;SDS011;50121;51.218;7.664;2023-05-16T01:48:38;9.32;;;8.52;;
63943;SDS011;50121;51.218;7.664;2023-05-16T01:51:08;8.25;;;7.57;;
63943;SDS011;50121;51.218;7.664;2023-05-16T01:53:37;8.73;;;8.02;;
63943;SDS011;50121;51.218;7.664;2023-05-16T01:56:08;9.18;;;8.38;;
63943;SDS011;50121;51.218;7.664;2023-05-16T01:58:36;8.90;;;8.20;;
63943;SDS011;50121;51.218;7.664;2023-05-16T02:01:04;9.50;;;8.60;;
63943;SDS011;50121;51.218;7.664;2023-05-16T02:03:33;9.30;;;8.50;;
63943;SDS011;50121;51.218;7.664;2023-05-16T02:06:01;9.27;;;8.48;;
63943;SDS011;50121;51.218;7.664;2023-05-16T02:08:28;9.07;;;8.38;;
63943;SDS011;50121;51.218;7.664;2023-05-16T02:10:56;8.23;;;7.60;;
63943;SDS011;50121;51.218;7.664;2023-05-16T02:13:23;9.02;;;8.32;;
63943;SDS011;50121;51.218;7.664;2023-05-16T02:15:51;8.95;;;8.25;;
63943;SDS011;50121;51.218;7.664;2023-05-16T02:18:19;8.60;;;7.90;;
63943;SDS011;50121;51.218;7.664;2023-05-16T02:20:49;7.88;;;7.28;;
63943;SDS011;50121;51.218;7.664;2023-05-16T02:23:16;8.57;;;7.85;;
63943;SDS011;50121;51.218;7.664;2023-05-16T02:25:44;8.15;;;7.53;;
63943;SDS011;50121;51.218;7.664;2023-05-16T02:28:12;8.88;;;8.10;;
63943;SDS011;50121;51.218;7.664;2023-05-16T02:30:39;13.02;;;12.23;;
63943;SDS011;50121;51.218;7.664;2023-05-16T02:33:07;7.32;;;6.82;;
63943;SDS011;50121;51.218;7.664;2023-05-16T02:35:35;7.75;;;7.18;;
63943;SDS011;50121;51.218;7.664;2023-05-16T02:38:02;7.47;;;6.97;;
63943;SDS011;50121;51.218;7.664;2023-05-16T02:40:30;7.88;;;7.28;;
63943;SDS011;50121;51.218;7.664;2023-05-16T02:42:57;7.68;;;7.05;;
63943;SDS011;50121;51.218;7.664;2023-05-16T02:45:25;7.75;;;7.15;;
63943;SDS011;50121;51.218;7.664;2023-05-16T02:47:52;7.60;;;7.00;;
63943;SDS011;50121;51.218;7.664;2023-05-16T02:50:20;7.05;;;6.55;;
63943;SDS011;50121;51.218;7.664;2023-05-16T02:52:48;6.95;;;6.38;;
63943;SDS011;50121;51.218;7.664;2023-05-16T02:55:16;7.38;;;6.70;;
63943;SDS011;50121;51.218;7.664;2023-05-16T02:57:47;6.70;;;6.10;;
63943;SDS011;50121;51.218;7.664;2023-05-16T03:00:16;6.20;;;5.80;;
63943;SDS011;50121;51.218;7.664;2023-05-16T03:02:44;6.15;;;5.65;;
63943;SDS011;50121;51.218;7.664;2023-05-16T03:05:12;5.57;;;5.28;;
63943;SDS011;50121;51.218;7.664;2023-05-16T03:07:40;5.38;;;5.00;;
63943;SDS011;50121;51.218;7.664;2023-05-16T03:10:07;5.80;;;5.50;;
63943;SDS011;50121;51.218;7.664;2023-05-16T03:12:37;6.72;;;6.13;;
63943;SDS011;50121;51.218;7.664;2023-05-16T03:15:04;5.88;;;5.47;;
63943;SDS011;50121;51.218;7.664;2023-05-16T03:17:35;5.88;;;5.47;;
63943;SDS011;50121;51.218;7.664;2023-05-16T03:20:02;6.47;;;5.97;;
63943;SDS011;50121;51.218;7.664;2023-05-16T03:22:30;6.75;;;6.22;;
63943;SDS011;50121;51.218;7.664;2023-05-16T03:24:58;6.28;;;5.68;;
63943;SDS011;50121;51.218;7.664;2023-05-16T03:27:26;6.05;;;5.65;;
63943;SDS011;50121;51.218;7.664;2023-05-16T03:29:53;5.82;;;5.32;;
63943;SDS011;50121;51.218;7.664;2023-05-16T03:32:21;6.03;;;5.55;;
63943;SDS011;50121;51.218;7.664;2023-05-16T03:34:48;7.20;;;5.68;;
63943;SDS011;50121;51.218;7.664;2023-05-16T03:37:16;6.43;;;5.80;;
63943;SDS011;50121;51.218;7.664;2023-05-16T03:39:44;6.45;;;5.95;;
63943;SDS011;50121;51.218;7.664;2023-05-16T03:42:11;6.65;;;6.10;;
63943;SDS011;50121;51.218;7.664;2023-05-16T03:44:39;8.10;;;6.40;;
63943;SDS011;50121;51.218;7.664;2023-05-16T03:47:06;11.32;;;6.60;;
63943;SDS011;50121;51.218;7.664;2023-05-16T03:49:34;7.22;;;6.57;;
63943;SDS011;50121;51.218;7.664;2023-05-16T03:52:04;7.90;;;7.00;;
63943;SDS011;50121;51.218;7.664;2023-05-16T03:54:32;8.73;;;6.82;;
63943;SDS011;50121;51.218;7.664;2023-05-16T03:57:00;7.60;;;6.90;;
63943;SDS011;50121;51.218;7.664;2023-05-16T03:59:27;8.20;;;7.45;;
63943;SDS011;50121;51.218;7.664;2023-05-16T04:01:55;8.02;;;7.00;;
63943;SDS011;50121;51.218;7.664;2023-05-16T04:04:22;7.47;;;6.78;;
63943;SDS011;50121;51.218;7.664;2023-05-16T04:06:50;9.32;;;8.35;;
63943;SDS011;50121;51.218;7.664;2023-05-16T04:09:17;8.95;;;7.88;;
63943;SDS011;50121;51.218;7.664;2023-05-16T04:11:45;8.93;;;8.10;;
63943;SDS011;50121;51.218;7.664;2023-05-16T04:14:14;12.13;;;8.38;;
63943;SDS011;50121;51.218;7.664;2023-05-16T04:16:41;10.77;;;8.20;;
63943;SDS011;50121;51.218;7.664;2023-05-16T04:19:09;14.52;;;7.70;;
63943;SDS011;50121;51.218;7.664;2023-05-16T04:21:36;9.73;;;8.02;;
63943;SDS011;50121;51.218;7.664;2023-05-16T04:24:04;10.48;;;7.63;;
63943;SDS011;50121;51.218;7.664;2023-05-16T04:26:32;9.45;;;7.45;;
63943;SDS011;50121;51.218;7.664;2023-05-16T04:28:59;10.60;;;8.27;;
63943;SDS011;50121;51.218;7.664;2023-05-16T04:31:27;12.38;;;8.43;;
63943;SDS011;50121;51.218;7.664;2023-05-16T04:33:55;9.60;;;7.63;;
63943;SDS011;50121;51.218;7.664;2023-05-16T04:36:23;12.40;;;8.25;;
63943;SDS011;50121;51.218;7.664;2023-05-16T04:38:55;12.65;;;8.15;;
63943;SDS011;50121;51.218;7.664;2023-05-16T04:41:23;11.43;;;8.00;;
63943;SDS011;50121;51.218;7.664;2023-05-16T04:43:50;8.18;;;7.45;;
63943;SDS011;50121;51.218;7.664;2023-05-16T04:46:22;14.25;;;8.05;;
63943;SDS011;50121;51.218;7.664;2023-05-16T04:48:49;11.52;;;7.97;;
63943;SDS011;50121;51.218;7.664;2023-05-16T04:51:17;11.75;;;8.63;;
63943;SDS011;50121;51.218;7.664;2023-05-16T04:53:45;10.02;;;7.72;;
63943;SDS011;50121;51.218;7.664;2023-05-16T04:56:12;16.58;;;7.80;;
63943;SDS011;50121;51.218;7.664;2023-05-16T04:58:40;11.60;;;8.38;;
63943;SDS011;50121;51.218;7.664;2023-05-16T05:01:08;13.93;;;9.00;;
63943;SDS011;50121;51.218;7.664;2023-05-16T05:03:36;12.65;;;7.35;;
63943;SDS011;50121;51.218;7.664;2023-05-16T05:06:03;13.27;;;8.57;;
63943;SDS011;50121;51.218;7.664;2023-05-16T05:08:31;9.95;;;8.88;;
63943;SDS011;50121;51.218;7.664;2023-05-16T05:10:59;12.60;;;7.65;;
63943;SDS011;50121;51.218;7.664;2023-05-16T05:13:26;12.05;;;9.18;;
63943;SDS011;50121;51.218;7.664;2023-05-16T05:15:56;11.90;;;7.10;;
63943;SDS011;50121;51.218;7.664;2023-05-16T05:18:24;16.20;;;7.55;;
63943;SDS011;50121;51.218;7.664;2023-05-16T05:20:52;12.90;;;8.07;;
63943;SDS011;50121;51.218;7.664;2023-05-16T05:23:19;14.15;;;7.95;;
63943;SDS011;50121;51.218;7.664;2023-05-16T05:25:47;10.25;;;8.00;;
63943;SDS011;50121;51.218;7.664;2023-05-16T05:28:15;12.90;;;8.32;;
63943;SDS011;50121;51.218;7.664;2023-05-16T05:30:42;16.90;;;7.90;;
63943;SDS011;50121;51.218;7.664;2023-05-16T05:33:10;12.68;;;7.70;;
63943;SDS011;50121;51.218;7.664;2023-05-16T05:35:38;10.82;;;7.45;;
63943;SDS011;50121;51.218;7.664;2023-05-16T05:38:05;11.82;;;6.18;;
63943;SDS011;50121;51.218;7.664;2023-05-16T05:40:33;10.95;;;5.85;;
63943;SDS011;50121;51.218;7.664;2023-05-16T05:43:01;12.65;;;7.47;;
63943;SDS011;50121;51.218;7.664;2023-05-16T05:45:29;11.68;;;7.50;;
63943;SDS011;50121;51.218;7.664;2023-05-16T05:47:56;12.70;;;7.60;;
63943;SDS011;50121;51.218;7.664;2023-05-16T05:50:24;11.02;;;6.78;;
63943;SDS011;50121;51.218;7.664;2023-05-16T05:52:52;9.07;;;6.72;;
63943;SDS011;50121;51.218;7.664;2023-05-16T05:55:20;12.23;;;6.70;;
63943;SDS011;50121;51.218;7.664;2023-05-16T05:57:48;10.73;;;6.85;;
63943;SDS011;50121;51.218;7.664;2023-05-16T06:00:15;11.60;;;6.65;;
63943;SDS011;50121;51.218;7.664;2023-05-16T06:02:43;8.43;;;6.32;;
63943;SDS011;50121;51.218;7.664;2023-05-16T06:05:10;9.20;;;6.25;;
63943;SDS011;50121;51.218;7.664;2023-05-16T06:07:38;13.75;;;6.50;;
63943;SDS011;50121;51.218;7.664;2023-05-16T06:10:06;14.80;;;7.30;;
63943;SDS011;50121;51.218;7.664;2023-05-16T06:12:36;12.07;;;6.93;;
63943;SDS011;50121;51.218;7.664;2023-05-16T06:15:03;17.23;;;11.35;;
63943;SDS011;50121;51.218;7.664;2023-05-16T06:17:31;17.02;;;8.85;;
63943;SDS011;50121;51.218;7.664;2023-05-16T06:19:59;11.93;;;6.97;;
63943;SDS011;50121;51.218;7.664;2023-05-16T06:22:28;15.00;;;6.72;;
63943;SDS011;50121;51.218;7.664;2023-05-16T06:24:56;11.93;;;7.43;;
63943;SDS011;50121;51.218;7.664;2023-05-16T06:27:24;13.52;;;6.88;;
63943;SDS011;50121;51.218;7.664;2023-05-16T06:29:51;12.48;;;6.68;;
63943;SDS011;50121;51.218;7.664;2023-05-16T06:32:19;8.82;;;6.90;;
63943;SDS011;50121;51.218;7.664;2023-05-16T06:34:47;10.63;;;8.15;;
63943;SDS011;50121;51.218;7.664;2023-05-16T06:37:15;20.38;;;12.18;;
63943;SDS011;50121;51.218;7.664;2023-05-16T06:39:43;11.60;;;7.68;;
63943;SDS011;50121;51.218;7.664;2023-05-16T06:42:10;12.40;;;8.13;;
63943;SDS011;50121;51.218;7.664;2023-05-16T06:44:38;14.32;;;8.48;;
63943;SDS011;50121;51.218;7.664;2023-05-16T06:47:06;12.85;;;7.80;;
63943;SDS011;50121;51.218;7.664;2023-05-16T06:49:34;10.98;;;7.53;;
63943;SDS011;50121;51.218;7.664;2023-05-16T06:52:02;16.63;;;6.93;;
63943;SDS011;50121;51.218;7.664;2023-05-16T06:54:29;8.10;;;7.30;;
63943;SDS011;50121;51.218;7.664;2023-05-16T06:56:57;15.90;;;10.15;;
63943;SDS011;50121;51.218;7.664;2023-05-16T06:59:25;9.15;;;7.50;;
63943;SDS011;50121;51.218;7.664;2023-05-16T07:01:53;10.10;;;6.80;;
63943;SDS011;50121;51.218;7.664;2023-05-16T07:04:21;18.67;;;10.38;;
63943;SDS011;50121;51.218;7.664;2023-05-16T07:06:49;11.05;;;7.22;;
63943;SDS011;50121;51.218;7.664;2023-05-16T07:09:17;12.35;;;7.10;;
63943;SDS011;50121;51.218;7.664;2023-05-16T07:11:44;11.18;;;7.70;;
63943;SDS011;50121;51.218;7.664;2023-05-16T07:14:12;10.48;;;7.00;;
63943;SDS011;50121;51.218;7.664;2023-05-16T07:16:39;12.60;;;6.80;;
63943;SDS011;50121;51.218;7.664;2023-05-16T07:19:07;11.02;;;6.25;;
63943;SDS011;50121;51.218;7.664;2023-05-16T07:21:35;10.18;;;6.15;;
63943;SDS011;50121;51.218;7.664;2023-05-16T07:24:03;13.63;;;6.90;;
63943;SDS011;50121;51.218;7.664;2023-05-16T07:26:30;10.50;;;6.40;;
63943;SDS011;50121;51.218;7.664;2023-05-16T07:28:58;16.08;;;7.10;;
63943;SDS011;50121;51.218;7.664;2023-05-16T07:31:28;10.70;;;6.63;;
63943;SDS011;50121;51.218;7.664;2023-05-16T07:33:56;9.93;;;6.70;;
63943;SDS011;50121;51.218;7.664;2023-05-16T07:36:24;9.00;;;6.47;;
63943;SDS011;50121;51.218;7.664;2023-05-16T07:38:52;9.70;;;6.70;;
63943;SDS011;50121;51.218;7.664;2023-05-16T07:41:19;17.17;;;7.72;;
63943;SDS011;50121;51.218;7.664;2023-05-16T07:43:47;11.88;;;7.20;;
63943;SDS011;50121;51.218;7.664;2023-05-16T07:46:15;11.48;;;6.80;;
63943;SDS011;50121;51.218;7.664;2023-05-16T07:48:42;11.32;;;6.57;;
63943;SDS011;50121;51.218;7.664;2023-05-16T07:51:10;10.98;;;6.70;;
63943;SDS011;50121;51.218;7.664;2023-05-16T07:53:38;10.35;;;6.70;;
63943;SDS011;50121;51.218;7.664;2023-05-16T07:56:06;10.65;;;6.13;;
63943;SDS011;50121;51.218;7.664;2023-05-16T07:58:34;8.85;;;6.70;;
63943;SDS011;50121;51.218;7.664;2023-05-16T08:01:02;13.82;;;7.20;;
63943;SDS011;50121;51.218;7.664;2023-05-16T08:03:30;10.10;;;7.30;;
63943;SDS011;50121;51.218;7.664;2023-05-16T08:05:57;11.00;;;7.00;;
63943;SDS011;50121;51.218;7.664;2023-05-16T08:08:27;9.18;;;7.00;;
63943;SDS011;50121;51.218;7.664;2023-05-16T08:10:55;11.77;;;7.07;;
63943;SDS011;50121;51.218;7.664;2023-05-16T08:13:25;11.15;;;7.72;;
63943;SDS011;50121;51.218;7.664;2023-05-16T08:15:52;9.15;;;7.22;;
63943;SDS011;50121;51.218;7.664;2023-05-16T08:18:20;9.65;;;7.05;;
63943;SDS011;50121;51.218;7.664;2023-05-16T08:20:48;8.70;;;6.63;;
63943;SDS011;50121;51.218;7.664;2023-05-16T08:23:17;8.38;;;7.00;;
63943;SDS011;50121;51.218;7.664;2023-05-16T08:25:45;8.00;;;7.20;;
63943;SDS011;50121;51.218;7.664;2023-05-16T08:28:13;7.93;;;6.90;;
63943;SDS011;50121;51.218;7.664;2023-05-16T08:30:41;10.15;;;7.63;;
63943;SDS011;50121;51.218;7.664;2023-05-16T08:33:08;9.10;;;7.10;;
63943;SDS011;50121;51.218;7.664;2023-05-16T08:35:36;10.77;;;7.30;;
63943;SDS011;50121;51.218;7.664;2023-05-16T08:38:04;10.00;;;8.00;;
63943;SDS011;50121;51.218;7.664;2023-05-16T08:40:31;8.70;;;7.47;;
63943;SDS011;50121;51.218;7.664;2023-05-16T08:42:59;12.70;;;7.75;;
63943;SDS011;50121;51.218;7.664;2023-05-16T08:45:27;8.30;;;7.15;;
63943;SDS011;50121;51.218;7.664;2023-05-16T08:47:56;8.40;;;6.63;;
63943;SDS011;50121;51.218;7.664;2023-05-16T08:50:24;10.63;;;7.18;;
63943;SDS011;50121;51.218;7.664;2023-05-16T08:52:51;6.57;;;5.95;;
63943;SDS011;50121;51.218;7.664;2023-05-16T08:55:19;13.70;;;7.68;;
63943;SDS011;50121;51.218;7.664;2023-05-16T08:57:48;15.68;;;8.50;;
63943;SDS011;50121;51.218;7.664;2023-05-16T09:00:19;11.63;;;7.03;;
63943;SDS011;50121;51.218;7.664;2023-05-16T09:02:48;11.95;;;8.55;;
63943;SDS011;50121;51.218;7.664;2023-05-16T09:05:16;8.88;;;8.02;;
63943;SDS011;50121;51.218;7.664;2023-05-16T09:07:44;10.15;;;7.40;;
63943;SDS011;50121;51.218;7.664;2023-05-16T09:10:11;11.80;;;7.35;;
63943;SDS011;50121;51.218;7.664;2023-05-16T09:12:42;12.93;;;7.38;;
63943;SDS011;50121;51.218;7.664;2023-05-16T09:15:10;8.35;;;6.25;;
63943;SDS011;50121;51.218;7.664;2023-05-16T09:17:38;7.47;;;6.38;;
63943;SDS011;50121;51.218;7.664;2023-05-16T09:20:10;8.88;;;6.00;;
63943;SDS011;50121;51.218;7.664;2023-05-16T09:22:38;10.15;;;6.03;;
63943;SDS011;50121;51.218;7.664;2023-05-16T09:25:06;7.65;;;6.43;;
63943;SDS011;50121;51.218;7.664;2023-05-16T09:27:39;9.43;;;6.20;;
63943;SDS011;50121;51.218;7.664;2023-05-16T09:30:07;6.63;;;5.85;;
63943;SDS011;50121;51.218;7.664;2023-05-16T09:32:35;9.07;;;6.85;;
63943;SDS011;50121;51.218;7.664;2023-05-16T09:35:02;7.13;;;6.43;;
63943;SDS011;50121;51.218;7.664;2023-05-16T09:37:30;10.32;;;7.10;;
63943;SDS011;50121;51.218;7.664;2023-05-16T09:39:58;9.13;;;6.70;;
63943;SDS011;50121;51.218;7.664;2023-05-16T09:42:26;8.65;;;6.97;;
63943;SDS011;50121;51.218;7.664;2023-05-16T09:44:54;7.72;;;5.85;;
63943;SDS011;50121;51.218;7.664;2023-05-16T09:47:22;9.13;;;6.10;;
63943;SDS011;50121;51.218;7.664;2023-05-16T09:49:54;11.75;;;7.18;;
63943;SDS011;50121;51.218;7.664;2023-05-16T09:52:25;9.23;;;7.07;;
63943;SDS011;50121;51.218;7.664;2023-05-16T09:54:53;8.77;;;6.40;;
63943;SDS011;50121;51.218;7.664;2023-05-16T09:57:21;9.52;;;7.25;;
63943;SDS011;50121;51.218;7.664;2023-05-16T09:59:49;8.60;;;6.80;;
63943;SDS011;50121;51.218;7.664;2023-05-16T10:02:17;8.18;;;6.88;;
63943;SDS011;50121;51.218;7.664;2023-05-16T10:04:45;6.70;;;6.07;;
63943;SDS011;50121;51.218;7.664;2023-05-16T10:07:14;7.57;;;6.60;;
63943;SDS011;50121;51.218;7.664;2023-05-16T10:09:43;7.20;;;6.50;;
63943;SDS011;50121;51.218;7.664;2023-05-16T10:12:12;9.75;;;6.80;;
63943;SDS011;50121;51.218;7.664;2023-05-16T10:14:41;13.07;;;8.13;;
63943;SDS011;50121;51.218;7.664;2023-05-16T10:17:13;12.45;;;6.97;;
63943;SDS011;50121;51.218;7.664;2023-05-16T10:19:42;7.55;;;6.40;;
63943;SDS011;50121;51.218;7.664;2023-05-16T10:22:10;9.43;;;6.85;;
63943;SDS011;50121;51.218;7.664;2023-05-16T10:24:43;11.23;;;6.65;;
63943;SDS011;50121;51.218;7.664;2023-05-16T10:27:10;7.30;;;6.60;;
63943;SDS011;50121;51.218;7.664;2023-05-16T10:29:42;7.32;;;6.72;;
63943;SDS011;50121;51.218;7.664;2023-05-16T10:32:18;7.28;;;6.00;;
63943;SDS011;50121;51.218;7.664;2023-05-16T10:34:47;6.63;;;5.80;;
63943;SDS011;50121;51.218;7.664;2023-05-16T10:37:15;6.60;;;6.00;;
63943;SDS011;50121;51.218;7.664;2023-05-16T10:39:43;7.07;;;6.00;;
63943;SDS011;50121;51.218;7.664;2023-05-16T10:42:11;9.13;;;6.60;;
63943;SDS011;50121;51.218;7.664;2023-05-16T10:44:43;8.82;;;6.60;;
63943;SDS011;50121;51.218;7.664;2023-05-16T10:47:17;9.27;;;5.65;;
63943;SDS011;50121;51.218;7.664;2023-05-16T10:49:46;8.93;;;6.00;;
63943;SDS011;50121;51.218;7.664;2023-05-16T10:52:14;7.15;;;6.30;;
63943;SDS011;50121;51.218;7.664;2023-05-16T10:54:48;8.30;;;6.18;;
63943;SDS011;50121;51.218;7.664;2023-05-16T10:57:18;6.88;;;6.18;;
63943;SDS011;50121;51.218;7.664;2023-05-16T10:59:47;6.30;;;5.70;;
63943;SDS011;50121;51.218;7.664;2023-05-16T11:02:49;7.40;;;5.60;;
63943;SDS011;50121;51.218;7.664;2023-05-16T11:05:12;6.70;;;5.70;;
63943;SDS011;50121;51.218;7.664;2023-05-16T11:07:40;6.18;;;5.55;;
63943;SDS011;50121;51.218;7.664;2023-05-16T11:12:42;7.57;;;6.50;;
63943;SDS011;50121;51.218;7.664;2023-05-16T11:15:21;7.20;;;6.00;;
63943;SDS011;50121;51.218;7.664;2023-05-16T11:17:50;7.45;;;6.40;;
63943;SDS011;50121;51.218;7.664;2023-05-16T11:20:31;6.85;;;6.20;;
63943;SDS011;50121;51.218;7.664;2023-05-16T11:25:44;6.20;;;5.50;;
63943;SDS011;50121;51.218;7.664;2023-05-16T11:28:12;7.78;;;5.90;;
63943;SDS011;50121;51.218;7.664;2023-05-16T11:30:43;8.07;;;5.68;;
63943;SDS011;50121;51.218;7.664;2023-05-16T11:33:11;10.20;;;5.90;;
63943;SDS011;50121;51.218;7.664;2023-05-16T11:35:39;5.88;;;5.32;;
63943;SDS011;50121;51.218;7.664;2023-05-16T11:38:12;7.43;;;5.90;;
63943;SDS011;50121;51.218;7.664;2023-05-16T11:43:10;7.75;;;6.10;;
63943;SDS011;50121;51.218;7.664;2023-05-16T11:45:44;6.03;;;5.43;;
63943;SDS011;50121;51.218;7.664;2023-05-16T11:48:13;6.80;;;6.10;;
63943;SDS011;50121;51.218;7.664;2023-05-16T11:50:44;5.63;;;5.22;;
63943;SDS011;50121;51.218;7.664;2023-05-16T11:53:13;7.22;;;6.07;;
63943;SDS011;50121;51.218;7.664;2023-05-16T11:55:41;6.82;;;5.50;;
63943;SDS011;50121;51.218;7.664;2023-05-16T11:58:09;6.30;;;5.63;;
63943;SDS011;50121;51.218;7.664;2023-05-16T12:00:43;6.85;;;6.20;;
63943;SDS011;50121;51.218;7.664;2023-05-16T12:03:14;9.13;;;8.23;;
63943;SDS011;50121;51.218;7.664;2023-05-16T12:05:49;7.05;;;6.40;;
63943;SDS011;50121;51.218;7.664;2023-05-16T12:08:19;6.60;;;5.68;;
63943;SDS011;50121;51.218;7.664;2023-05-16T12:10:53;6.35;;;5.75;;
63943;SDS011;50121;51.218;7.664;2023-05-16T12:13:22;7.00;;;6.30;;
63943;SDS011;50121;51.218;7.664;2023-05-16T12:15:51;5.95;;;5.38;;
63943;SDS011;50121;51.218;7.664;2023-05-16T12:18:19;7.60;;;5.80;;
63943;SDS011;50121;51.218;7.664;2023-05-16T12:20:47;5.78;;;5.30;;
63943;SDS011;50121;51.218;7.664;2023-05-16T12:23:15;6.57;;;5.80;;
63943;SDS011;50121;51.218;7.664;2023-05-16T12:25:46;7.38;;;6.10;;
63943;SDS011;50121;51.218;7.664;2023-05-16T12:28:15;5.82;;;5.30;;
63943;SDS011;50121;51.218;7.664;2023-05-16T12:30:43;6.43;;;5.93;;
63943;SDS011;50121;51.218;7.664;2023-05-16T12:33:14;5.78;;;5.20;;
63943;SDS011;50121;51.218;7.664;2023-05-16T12:35:44;7.07;;;5.70;;
63943;SDS011;50121;51.218;7.664;2023-05-16T12:38:13;8.15;;;5.30;;
63943;SDS011;50121;51.218;7.664;2023-05-16T12:40:43;5.80;;;4.90;;
63943;SDS011;50121;51.218;7.664;2023-05-16T12:43:21;7.90;;;5.40;;
63943;SDS011;50121;51.218;7.664;2023-05-16T12:45:49;11.50;;;9.07;;
63943;SDS011;50121;51.218;7.664;2023-05-16T12:48:18;7.95;;;6.30;;
63943;SDS011;50121;51.218;7.664;2023-05-16T12:50:46;7.88;;;7.00;;
63943;SDS011;50121;51.218;7.664;2023-05-16T12:53:15;6.65;;;5.50;;
63943;SDS011;50121;51.218;7.664;2023-05-16T12:55:43;5.43;;;4.93;;
63943;SDS011;50121;51.218;7.664;2023-05-16T12:58:11;5.72;;;5.20;;
63943;SDS011;50121;51.218;7.664;2023-05-16T13:00:39;7.32;;;5.22;;
63943;SDS011;50121;51.218;7.664;2023-05-16T13:03:07;6.78;;;5.30;;
63943;SDS011;50121;51.218;7.664;2023-05-16T13:05:35;5.40;;;5.00;;
63943;SDS011;50121;51.218;7.664;2023-05-16T13:08:03;5.57;;;5.07;;
63943;SDS011;50121;51.218;7.664;2023-05-16T13:10:31;8.05;;;5.43;;
63943;SDS011;50121;51.218;7.664;2023-05-16T13:13:00;6.15;;;5.65;;
63943;SDS011;50121;51.218;7.664;2023-05-16T13:15:28;7.97;;;5.05;;
63943;SDS011;50121;51.218;7.664;2023-05-16T13:17:56;5.88;;;5.38;;
63943;SDS011;50121;51.218;7.664;2023-05-16T13:20:24;9.55;;;4.95;;
63943;SDS011;50121;51.218;7.664;2023-05-16T13:22:52;4.90;;;4.50;;
63943;SDS011;50121;51.218;7.664;2023-05-16T13:25:21;7.85;;;5.75;;
63943;SDS011;50121;51.218;7.664;2023-05-16T13:27:49;6.25;;;5.45;;
63943;SDS011;50121;51.218;7.664;2023-05-16T13:30:17;9.27;;;5.50;;
63943;SDS011;50121;51.218;7.664;2023-05-16T13:32:44;5.93;;;5.30;;
63943;SDS011;50121;51.218;7.664;2023-05-16T13:35:14;5.80;;;5.30;;
63943;SDS011;50121;51.218;7.664;2023-05-16T13:37:42;8.85;;;5.68;;
63943;SDS011;50121;51.218;7.664;2023-05-16T13:40:10;7.50;;;5.70;;
63943;SDS011;50121;51.218;7.664;2023-05-16T13:42:38;7.80;;;5.20;;
63943;SDS011;50121;51.218;7.664;2023-05-16T13:45:05;7.30;;;6.57;;
63943;SDS011;50121;51.218;7.664;2023-05-16T13:47:33;7.38;;;6.68;;
63943;SDS011;50121;51.218;7.664;2023-05-16T13:50:02;7.07;;;5.70;;
63943;SDS011;50121;51.218;7.664;2023-05-16T13:52:37;8.02;;;6.15;;
63943;SDS011;50121;51.218;7.664;2023-05-16T13:55:06;7.88;;;6.57;;
63943;SDS011;50121;51.218;7.664;2023-05-16T13:57:37;8.77;;;7.63;;
63943;SDS011;50121;51.218;7.664;2023-05-16T14:00:05;7.47;;;6.45;;
63943;SDS011;50121;51.218;7.664;2023-05-16T14:02:42;7.55;;;5.45;;
63943;SDS011;50121;51.218;7.664;2023-05-16T14:05:10;6.03;;;5.53;;
63943;SDS011;50121;51.218;7.664;2023-05-16T14:07:38;8.02;;;5.85;;
63943;SDS011;50121;51.218;7.664;2023-05-16T14:10:06;7.18;;;6.10;;
63943;SDS011;50121;51.218;7.664;2023-05-16T14:12:42;5.38;;;4.97;;
63943;SDS011;50121;51.218;7.664;2023-05-16T14:15:10;6.10;;;5.70;;
63943;SDS011;50121;51.218;7.664;2023-05-16T14:17:37;5.70;;;5.30;;
63943;SDS011;50121;51.218;7.664;2023-05-16T14:20:06;5.65;;;5.10;;
63943;SDS011;50121;51.218;7.664;2023-05-16T14:22:36;6.03;;;5.53;;
63943;SDS011;50121;51.218;7.664;2023-05-16T14:25:04;5.90;;;5.40;;
63943;SDS011;50121;51.218;7.664;2023-05-16T14:27:32;6.50;;;5.80;;
63943;SDS011;50121;51.218;7.664;2023-05-16T14:30:00;6.55;;;5.80;;
63943;SDS011;50121;51.218;7.664;2023-05-16T14:32:29;6.97;;;6.10;;
63943;SDS011;50121;51.218;7.664;2023-05-16T14:34:57;6.15;;;5.65;;
63943;SDS011;50121;51.218;7.664;2023-05-16T14:37:25;5.82;;;5.30;;
63943;SDS011;50121;51.218;7.664;2023-05-16T14:39:53;6.60;;;6.00;;
63943;SDS011;50121;51.218;7.664;2023-05-16T14:42:22;6.32;;;5.72;;
63943;SDS011;50121;51.218;7.664;2023-05-16T14:44:51;6.35;;;5.63;;
63943;SDS011;50121;51.218;7.664;2023-05-16T14:47:19;6.20;;;5.63;;
63943;SDS011;50121;51.218;7.664;2023-05-16T14:49:47;5.60;;;5.10;;
63943;SDS011;50121;51.218;7.664;2023-05-16T14:52:15;5.40;;;5.00;;
63943;SDS011;50121;51.218;7.664;2023-05-16T14:54:42;5.55;;;5.03;;
63943;SDS011;50121;51.218;7.664;2023-05-16T14:57:10;7.25;;;5.80;;
63943;SDS011;50121;51.218;7.664;2023-05-16T14:59:38;5.50;;;5.00;;
63943;SDS011;50121;51.218;7.664;2023-05-16T15:02:06;5.60;;;5.20;;
63943;SDS011;50121;51.218;7.664;2023-05-16T15:04:34;7.18;;;5.60;;
63943;SDS011;50121;51.218;7.664;2023-05-16T15:07:01;6.72;;;6.18;;
63943;SDS011;50121;51.218;7.664;2023-05-16T15:09:29;6.38;;;5.88;;
63943;SDS011;50121;51.218;7.664;2023-05-16T15:11:57;5.40;;;5.10;;